createdAt,value
2019-05-10T00:01:41.656Z,13.29
2019-05-10T00:04:01.773Z,13.26
2019-05-10T00:06:21.712Z,13.36
2019-05-10T00:08:41.957Z,13.42
2019-05-10T00:10:45.229Z,13.43
2019-05-10T00:12:51.113Z,13.32
2019-05-10T00:14:54.001Z,13.30
2019-05-10T00:16:57.381Z,13.29
2019-05-10T00:18:58.726Z,13.33
2019-05-10T00:21:00.123Z,13.33
2019-05-10T00:23:01.471Z,13.35
2019-05-10T00:25:05.340Z,13.35
2019-05-10T00:27:07.043Z,13.38
2019-05-10T00:29:08.513Z,13.27
2019-05-10T00:31:10.009Z,13.25
2019-05-10T00:33:11.395Z,13.29
2019-05-10T00:35:12.960Z,13.37
2019-05-10T00:37:14.353Z,13.32
2019-05-10T00:39:19.205Z,13.26
2019-05-10T00:41:19.028Z,13.30
2019-05-10T00:43:20.440Z,13.37
2019-05-10T00:45:21.791Z,13.34
2019-05-10T00:47:23.224Z,13.35
2019-05-10T00:49:24.571Z,13.30
2019-05-10T00:51:25.952Z,13.30
2019-05-10T00:53:27.345Z,13.27
2019-05-10T00:55:28.738Z,13.16
2019-05-10T00:57:30.089Z,13.20
2019-05-10T00:59:31.483Z,13.19
2019-05-10T01:01:32.843Z,13.08
2019-05-10T01:03:34.214Z,13.11
2019-05-10T01:05:36.105Z,13.10
2019-05-10T01:07:37.465Z,13.11
2019-05-10T01:09:38.873Z,13.17
2019-05-10T01:11:40.281Z,13.08
2019-05-10T01:13:41.664Z,13.05
2019-05-10T01:15:46.424Z,12.99
2019-05-10T01:17:46.947Z,13.08
2019-05-10T01:19:48.427Z,13.13
2019-05-10T01:21:49.846Z,13.13
2019-05-10T01:23:51.200Z,13.14
2019-05-10T01:25:52.585Z,13.18
2019-05-10T01:27:53.952Z,13.18
2019-05-10T01:29:55.312Z,13.14
2019-05-10T01:31:56.760Z,13.16
2019-05-10T01:33:58.217Z,13.14
2019-05-10T01:35:59.600Z,13.10
2019-05-10T01:38:00.994Z,13.10
2019-05-10T01:40:04.495Z,12.99
2019-05-10T01:42:05.886Z,13.00
2019-05-10T01:44:07.261Z,13.10
2019-05-10T01:46:08.683Z,13.11
2019-05-10T01:48:10.190Z,13.06
2019-05-10T01:50:11.746Z,12.97
2019-05-10T01:52:13.171Z,12.97
2019-05-10T01:54:14.530Z,12.97
2019-05-10T01:56:15.912Z,13.04
2019-05-10T01:58:17.312Z,13.05
2019-05-10T02:00:19.068Z,13.10
2019-05-10T02:02:20.471Z,13.02
2019-05-10T02:04:21.834Z,12.98
2019-05-10T02:06:23.199Z,13.02
2019-05-10T02:08:24.593Z,12.96
2019-05-10T02:10:26.075Z,12.84
2019-05-10T02:12:27.426Z,12.88
2019-05-10T02:14:28.873Z,12.87
2019-05-10T02:16:30.318Z,12.84
2019-05-10T02:18:31.727Z,12.85
2019-05-10T02:20:33.088Z,12.78
2019-05-10T02:22:34.951Z,12.74
2019-05-10T02:24:36.346Z,12.66
2019-05-10T02:26:37.705Z,12.63
2019-05-10T02:28:39.073Z,12.64
2019-05-10T02:30:40.494Z,12.62
2019-05-10T02:32:41.873Z,12.52
2019-05-10T02:34:43.232Z,12.54
2019-05-10T02:36:44.654Z,12.48
2019-05-10T02:38:46.038Z,12.44
2019-05-10T02:40:47.437Z,12.45
2019-05-10T02:42:48.824Z,12.47
2019-05-10T02:44:50.199Z,12.58
2019-05-10T02:46:51.599Z,12.55
2019-05-10T02:48:53.082Z,12.48
2019-05-10T02:50:54.565Z,12.56
2019-05-10T02:52:55.970Z,12.54
2019-05-10T02:54:58.406Z,12.55
2019-05-10T02:57:01.063Z,12.58
2019-05-10T02:59:02.632Z,12.60
2019-05-10T03:01:04.141Z,12.65
2019-05-10T03:03:06.662Z,12.78
2019-05-10T03:05:08.374Z,12.66
2019-05-10T03:07:09.724Z,12.76
2019-05-10T03:09:11.178Z,12.75
2019-05-10T03:11:13.410Z,12.67
2019-05-10T03:13:16.133Z,12.72
2019-05-10T03:15:17.806Z,12.72
2019-05-10T03:17:19.184Z,12.70
2019-05-10T03:19:21.619Z,12.68
2019-05-10T03:21:23.548Z,12.75
2019-05-10T03:23:25.159Z,12.66
2019-05-10T03:25:27.126Z,12.67
2019-05-10T03:27:28.546Z,12.68
2019-05-10T03:29:30.017Z,12.64
2019-05-10T03:31:31.411Z,12.67
2019-05-10T03:33:32.827Z,12.68
2019-05-10T03:35:34.245Z,12.64
2019-05-10T03:37:35.932Z,12.74
2019-05-10T03:39:37.312Z,12.76
2019-05-10T03:41:38.937Z,12.67
2019-05-10T03:43:40.337Z,12.64
2019-05-10T03:45:41.706Z,12.80
2019-05-10T03:47:43.152Z,12.71
2019-05-10T03:49:44.537Z,12.74
2019-05-10T03:51:45.907Z,12.75
2019-05-10T03:53:47.324Z,12.71
2019-05-10T03:55:48.719Z,12.72
2019-05-10T03:57:50.089Z,12.74
2019-05-10T03:59:51.488Z,12.78
2019-05-10T04:01:52.908Z,12.81
2019-05-10T04:03:54.562Z,12.74
2019-05-10T04:05:56.063Z,12.74
2019-05-10T04:07:57.483Z,12.77
2019-05-10T04:09:58.846Z,12.66
2019-05-10T04:12:00.305Z,12.86
2019-05-10T04:14:02.119Z,12.86
2019-05-10T04:16:03.524Z,12.73
2019-05-10T04:18:04.952Z,12.78
2019-05-10T04:20:07.060Z,12.72
2019-05-10T04:22:08.440Z,12.81
2019-05-10T04:24:09.872Z,12.80
2019-05-10T04:26:11.620Z,12.86
2019-05-10T04:28:13.093Z,12.91
2019-05-10T04:30:15.408Z,12.90
2019-05-10T04:32:16.881Z,12.97
2019-05-10T04:34:18.291Z,13.07
2019-05-10T04:36:19.693Z,13.04
2019-05-10T04:38:21.066Z,13.15
2019-05-10T04:40:22.465Z,13.17
2019-05-10T04:42:23.884Z,13.10
2019-05-10T04:44:25.245Z,13.14
2019-05-10T04:46:26.625Z,13.36
2019-05-10T04:48:28.021Z,13.34
2019-05-10T04:50:29.476Z,13.31
2019-05-10T04:52:30.852Z,13.29
2019-05-10T04:54:32.264Z,13.38
2019-05-10T04:56:33.632Z,13.47
2019-05-10T04:58:35.013Z,13.54
2019-05-10T05:00:36.430Z,13.59
2019-05-10T05:02:37.799Z,13.56
2019-05-10T05:04:39.179Z,13.67
2019-05-10T05:06:40.593Z,13.82
2019-05-10T05:08:41.995Z,13.84
2019-05-10T05:10:43.376Z,13.88
2019-05-10T05:12:44.810Z,13.88
2019-05-10T05:14:46.170Z,13.89
2019-05-10T05:16:47.660Z,13.90
2019-05-10T05:18:49.386Z,13.95
2019-05-10T05:20:50.986Z,14.13
2019-05-10T05:22:52.461Z,14.27
2019-05-10T05:24:55.223Z,14.18
2019-05-10T05:26:57.234Z,14.13
2019-05-10T05:28:58.624Z,14.34
2019-05-10T05:31:00.043Z,14.42
2019-05-10T05:33:01.616Z,14.41
2019-05-10T05:35:04.588Z,14.41
2019-05-10T05:37:05.996Z,14.49
2019-05-10T05:39:07.372Z,14.63
2019-05-10T05:41:08.769Z,14.71
2019-05-10T05:43:10.244Z,14.79
2019-05-10T05:45:12.197Z,14.74
2019-05-10T05:47:13.582Z,14.76
2019-05-10T05:49:14.964Z,14.71
2019-05-10T05:51:16.377Z,14.65
2019-05-10T05:53:17.751Z,14.71
2019-05-10T05:55:22.696Z,14.75
2019-05-10T05:57:27.769Z,14.73
2019-05-10T05:59:26.342Z,14.64
2019-05-10T06:01:29.539Z,14.74
2019-05-10T06:03:31.151Z,14.71
2019-05-10T06:05:37.213Z,14.78
2019-05-10T06:07:39.533Z,14.83
2019-05-10T06:09:41.050Z,14.95
2019-05-10T06:11:42.447Z,15.05
2019-05-10T06:13:43.860Z,15.15
2019-05-10T06:15:45.343Z,15.08
2019-05-10T06:17:56.070Z,15.19
2019-05-10T06:19:50.157Z,15.21
2019-05-10T06:21:51.520Z,15.37
2019-05-10T06:23:52.883Z,15.31
2019-05-10T06:25:54.304Z,15.27
2019-05-10T06:27:55.682Z,15.42
2019-05-10T06:29:57.052Z,15.59
2019-05-10T06:31:59.010Z,15.79
2019-05-10T06:34:00.541Z,15.80
2019-05-10T06:36:01.947Z,15.77
2019-05-10T06:38:03.421Z,15.63
2019-05-10T06:40:05.522Z,15.30
2019-05-10T06:42:06.904Z,15.38
2019-05-10T06:44:08.298Z,15.58
2019-05-10T06:46:09.665Z,15.87
2019-05-10T06:48:11.085Z,16.31
2019-05-10T06:50:13.096Z,16.76
2019-05-10T06:52:16.312Z,17.55
2019-05-10T06:54:17.744Z,17.81
2019-05-10T06:56:19.149Z,17.73
2019-05-10T06:58:20.508Z,17.37
2019-05-10T07:00:21.877Z,16.92
2019-05-10T07:02:26.775Z,16.74
2019-05-10T07:04:26.574Z,16.59
2019-05-10T07:06:27.919Z,16.49
2019-05-10T07:08:43.242Z,16.37
2019-05-10T07:10:33.651Z,16.46
2019-05-10T07:12:35.672Z,16.42
2019-05-10T07:14:43.170Z,16.33
2019-05-10T07:16:40.379Z,16.57
2019-05-10T07:18:41.771Z,16.53
2019-05-10T07:20:43.488Z,16.52
2019-05-10T07:22:45.014Z,16.73
2019-05-10T07:24:46.459Z,16.54
2019-05-10T07:26:47.835Z,16.37
2019-05-10T07:28:51.911Z,16.46
2019-05-10T07:30:52.497Z,16.48
2019-05-10T07:32:54.524Z,16.59
2019-05-10T07:35:00.827Z,16.69
2019-05-10T07:37:01.911Z,16.72
2019-05-10T07:39:08.373Z,16.74
2019-05-10T07:41:09.122Z,16.99
2019-05-10T07:43:10.530Z,16.81
2019-05-10T07:45:11.999Z,16.76
2019-05-10T07:47:13.374Z,16.66
2019-05-10T07:49:14.778Z,16.69
2019-05-10T07:51:16.251Z,16.66
2019-05-10T07:53:22.778Z,16.85
2019-05-10T07:55:28.055Z,17.34
2019-05-10T07:57:26.835Z,17.49
2019-05-10T07:59:30.333Z,17.28
2019-05-10T08:01:32.855Z,17.00
2019-05-10T08:03:35.651Z,17.01
2019-05-10T08:05:39.184Z,17.08
2019-05-10T08:07:40.685Z,17.06
2019-05-10T08:09:45.256Z,16.76
2019-05-10T08:11:48.347Z,16.57
2019-05-10T08:13:49.234Z,16.53
2019-05-10T08:15:50.646Z,16.66
2019-05-10T08:17:52.005Z,16.68
2019-05-10T08:19:53.422Z,16.82
2019-05-10T08:22:00.807Z,17.00
2019-05-10T08:23:58.951Z,16.95
2019-05-10T08:26:04.435Z,16.89
2019-05-10T08:28:05.501Z,16.83
2019-05-10T08:30:24.311Z,16.75
2019-05-10T08:32:12.869Z,16.73
2019-05-10T08:34:14.530Z,16.77
2019-05-10T08:36:15.924Z,16.85
2019-05-10T08:38:17.338Z,17.01
2019-05-10T08:40:19.592Z,17.27
2019-05-10T08:42:37.627Z,17.84
2019-05-10T08:44:25.295Z,18.59
2019-05-10T08:46:37.306Z,18.65
2019-05-10T08:48:29.978Z,18.27
2019-05-10T08:50:48.923Z,17.94
2019-05-10T08:52:34.653Z,17.83
2019-05-10T08:54:36.058Z,17.88
2019-05-10T08:56:37.436Z,17.94
2019-05-10T08:58:38.801Z,18.39
2019-05-10T09:00:50.652Z,18.41
2019-05-10T09:02:43.505Z,18.36
2019-05-10T09:04:49.612Z,17.97
2019-05-10T09:06:55.347Z,18.25
2019-05-10T09:08:52.795Z,18.50
2019-05-10T09:10:54.867Z,18.98
2019-05-10T09:12:58.153Z,19.61
2019-05-10T09:15:06.707Z,19.99
2019-05-10T09:17:04.417Z,20.09
2019-05-10T09:19:06.233Z,19.62
2019-05-10T09:21:09.202Z,19.99
2019-05-10T09:23:15.408Z,19.75
2019-05-10T09:25:14.446Z,19.49
2019-05-10T09:27:15.852Z,18.99
2019-05-10T09:29:17.217Z,18.92
2019-05-10T09:31:22.826Z,18.85
2019-05-10T09:33:22.546Z,18.71
2019-05-10T09:35:24.057Z,18.45
2019-05-10T09:37:25.459Z,18.41
2019-05-10T09:39:26.824Z,18.28
2019-05-10T09:41:33.799Z,18.05
2019-05-10T09:43:32.072Z,17.70
2019-05-10T09:45:33.484Z,17.65
2019-05-10T09:47:34.902Z,17.90
2019-05-10T09:49:36.284Z,17.98
2019-05-10T09:51:37.684Z,18.08
2019-05-10T09:53:39.053Z,18.80
2019-05-10T09:55:40.455Z,19.56
2019-05-10T09:57:41.888Z,19.27
2019-05-10T09:59:43.254Z,19.20
2019-05-10T10:01:44.632Z,18.86
2019-05-10T10:03:47.667Z,19.16
2019-05-10T10:05:49.320Z,19.39
2019-05-10T10:07:50.709Z,19.60
2019-05-10T10:09:52.140Z,19.30
2019-05-10T10:11:57.974Z,19.54
2019-05-10T10:13:59.804Z,19.64
2019-05-10T10:16:03.941Z,19.59
2019-05-10T10:18:03.745Z,19.13
2019-05-10T10:20:08.164Z,18.89
2019-05-10T10:22:11.030Z,18.52
2019-05-10T10:24:17.374Z,18.43
2019-05-10T10:26:20.362Z,18.24
2019-05-10T10:28:19.964Z,17.93
2019-05-10T10:30:24.203Z,17.86
2019-05-10T10:32:33.152Z,17.62
2019-05-10T10:34:32.672Z,17.66
2019-05-10T10:36:32.165Z,17.57
2019-05-10T10:38:39.160Z,17.53
2019-05-10T10:40:44.309Z,17.52
2019-05-10T10:42:40.208Z,17.48
2019-05-10T10:44:41.583Z,17.30
2019-05-10T10:46:42.998Z,16.78
2019-05-10T10:48:49.165Z,16.72
2019-05-10T10:50:53.819Z,16.77
2019-05-10T10:52:51.044Z,16.82
2019-05-10T10:54:52.408Z,17.04
2019-05-10T10:56:53.802Z,17.24
2019-05-10T10:58:57.799Z,17.28
2019-05-10T11:00:58.481Z,17.38
2019-05-10T11:03:01.888Z,17.43
2019-05-10T11:05:04.973Z,17.36
2019-05-10T11:07:10.521Z,17.55
2019-05-10T11:09:09.789Z,17.67
2019-05-10T11:11:11.195Z,17.78
2019-05-10T11:13:18.998Z,18.12
2019-05-10T11:15:16.429Z,18.60
2019-05-10T11:17:19.428Z,19.28
2019-05-10T11:19:20.838Z,19.66
2019-05-10T11:21:23.298Z,19.64
2019-05-10T11:23:33.931Z,19.47
2019-05-10T11:25:28.773Z,18.98
2019-05-10T11:27:30.936Z,19.88
2019-05-10T11:29:32.558Z,20.46
2019-05-10T11:31:33.953Z,20.34
2019-05-10T11:33:35.319Z,20.35
2019-05-10T11:35:36.768Z,20.06
2019-05-10T11:37:38.176Z,19.53
2019-05-10T11:39:45.479Z,19.13
2019-05-10T11:41:42.848Z,18.75
2019-05-10T11:43:44.255Z,18.24
2019-05-10T11:45:45.649Z,17.78
2019-05-10T11:47:48.115Z,18.02
2019-05-10T11:49:50.905Z,17.96
2019-05-10T11:51:54.984Z,17.97
2019-05-10T11:53:59.623Z,17.79
2019-05-10T11:56:01.765Z,17.68
2019-05-10T11:58:08.506Z,17.38
2019-05-10T12:00:14.264Z,16.82
2019-05-10T12:02:33.910Z,16.75
2019-05-10T12:04:24.073Z,16.71
2019-05-10T12:06:17.549Z,16.89
2019-05-10T12:08:18.920Z,16.95
2019-05-10T12:10:25.177Z,17.02
2019-05-10T12:12:29.712Z,17.09
2019-05-10T12:14:27.432Z,17.15
2019-05-10T12:16:33.073Z,17.21
2019-05-10T12:18:36.010Z,17.26
2019-05-10T12:20:51.070Z,17.56
2019-05-10T12:22:42.046Z,17.69
2019-05-10T12:24:53.951Z,18.07
2019-05-10T12:27:13.278Z,18.33
2019-05-10T12:28:50.896Z,18.76
2019-05-10T12:30:51.879Z,19.18
2019-05-10T12:32:56.013Z,19.50
2019-05-10T12:34:56.833Z,19.27
2019-05-10T12:37:03.815Z,19.36
2019-05-10T12:39:01.898Z,19.33
2019-05-10T12:41:05.428Z,19.44
2019-05-10T12:43:06.736Z,19.47
2019-05-10T12:45:09.023Z,19.40
2019-05-10T12:47:11.402Z,19.36
2019-05-10T12:49:12.966Z,19.50
2019-05-10T12:51:16.185Z,19.26
2019-05-10T12:53:18.529Z,19.38
2019-05-10T12:55:20.147Z,19.50
2019-05-10T12:57:21.582Z,19.76
2019-05-10T12:59:23.035Z,19.83
2019-05-10T13:01:25.751Z,19.86
2019-05-10T13:03:31.693Z,20.17
2019-05-10T13:05:33.853Z,20.42
2019-05-10T13:07:36.904Z,20.60
2019-05-10T13:09:40.865Z,20.48
2019-05-10T13:11:40.997Z,20.20
2019-05-10T13:13:42.382Z,19.84
2019-05-10T13:15:43.756Z,19.55
2019-05-10T13:17:50.455Z,19.91
2019-05-10T13:19:52.751Z,20.11
2019-05-10T13:21:53.750Z,20.08
2019-05-10T13:23:55.378Z,19.64
2019-05-10T13:25:56.912Z,19.43
2019-05-10T13:27:58.322Z,19.53
2019-05-10T13:29:59.738Z,19.69
2019-05-10T13:32:01.163Z,19.92
2019-05-10T13:34:02.539Z,19.93
2019-05-10T13:36:03.906Z,19.95
2019-05-10T13:38:06.558Z,20.11
2019-05-10T13:40:08.594Z,19.79
2019-05-10T13:42:10.099Z,20.02
2019-05-10T13:44:11.485Z,20.11
2019-05-10T13:46:12.858Z,20.20
2019-05-10T13:48:14.254Z,20.17
2019-05-10T13:50:15.757Z,19.99
2019-05-10T13:52:17.336Z,19.85
2019-05-10T13:54:18.688Z,19.73
2019-05-10T13:56:20.117Z,19.64
2019-05-10T13:58:21.487Z,19.40
2019-05-10T14:00:32.986Z,19.47
2019-05-10T14:02:32.475Z,19.51
2019-05-10T14:04:33.973Z,19.74
2019-05-10T14:06:33.157Z,19.77
2019-05-10T14:08:34.543Z,19.67
2019-05-10T14:10:35.937Z,19.53
2019-05-10T14:12:37.344Z,19.35
2019-05-10T14:14:38.701Z,19.34
2019-05-10T14:16:40.062Z,19.25
2019-05-10T14:18:41.456Z,19.31
2019-05-10T14:20:42.817Z,19.46
2019-05-10T14:22:48.425Z,19.96
2019-05-10T14:24:53.477Z,19.77
2019-05-10T14:26:51.613Z,19.93
2019-05-10T14:28:54.698Z,19.71
2019-05-10T14:30:58.525Z,19.14
2019-05-10T14:32:59.517Z,19.18
2019-05-10T14:35:01.022Z,19.13
2019-05-10T14:37:02.397Z,18.89
2019-05-10T14:39:06.251Z,18.80
2019-05-10T14:41:10.756Z,18.91
2019-05-10T14:43:11.015Z,18.86
2019-05-10T14:45:12.995Z,18.80
2019-05-10T14:47:14.390Z,18.80
2019-05-10T14:49:15.773Z,18.77
2019-05-10T14:51:17.132Z,18.34
2019-05-10T14:53:20.031Z,17.88
2019-05-10T14:55:21.850Z,17.60
2019-05-10T14:57:23.209Z,17.24
2019-05-10T14:59:24.587Z,16.64
2019-05-10T15:01:25.988Z,15.46
2019-05-10T15:03:27.363Z,14.83
2019-05-10T15:05:28.748Z,14.33
2019-05-10T15:07:30.204Z,14.06
2019-05-10T15:09:31.611Z,13.74
2019-05-10T15:11:33.239Z,13.93
2019-05-10T15:13:35.449Z,13.98
2019-05-10T15:15:38.667Z,14.08
2019-05-10T15:17:40.168Z,14.19
2019-05-10T15:19:41.556Z,14.35
2019-05-10T15:21:42.957Z,14.58
2019-05-10T15:23:44.332Z,14.56
2019-05-10T15:25:56.706Z,14.80
2019-05-10T15:27:49.028Z,15.11
2019-05-10T15:29:50.444Z,15.35
2019-05-10T15:31:51.812Z,15.69
2019-05-10T15:33:53.724Z,15.87
2019-05-10T15:35:55.157Z,15.95
2019-05-10T15:37:56.511Z,15.97
2019-05-10T15:40:00.466Z,16.07
2019-05-10T15:42:02.416Z,16.09
2019-05-10T15:44:04.185Z,16.18
2019-05-10T15:46:06.002Z,16.30
2019-05-10T15:48:07.824Z,16.52
2019-05-10T15:50:10.589Z,16.58
2019-05-10T15:52:17.496Z,16.65
2019-05-10T15:54:16.255Z,16.78
2019-05-10T15:56:18.035Z,16.89
2019-05-10T15:58:19.831Z,16.92
2019-05-10T16:00:25.408Z,16.90
2019-05-10T16:02:25.891Z,17.01
2019-05-10T16:04:27.560Z,16.94
2019-05-10T16:06:32.696Z,16.88
2019-05-10T16:08:32.996Z,16.70
2019-05-10T16:10:39.246Z,16.76
2019-05-10T16:12:43.056Z,16.85
2019-05-10T16:14:45.465Z,16.98
2019-05-10T16:16:46.630Z,16.95
2019-05-10T16:18:48.602Z,16.84
2019-05-10T16:20:50.417Z,16.91
2019-05-10T16:22:52.397Z,17.01
2019-05-10T16:25:00.679Z,17.08
2019-05-10T16:27:00.049Z,17.15
2019-05-10T16:29:03.408Z,17.01
2019-05-10T16:31:05.298Z,17.06
2019-05-10T16:33:09.619Z,17.21
2019-05-10T16:35:13.171Z,17.29
2019-05-10T16:37:14.283Z,17.66
2019-05-10T16:39:15.698Z,17.70
2019-05-10T16:41:17.061Z,17.81
2019-05-10T16:43:23.768Z,17.67
2019-05-10T16:45:21.777Z,17.73
2019-05-10T16:47:23.154Z,17.89
2019-05-10T16:49:24.557Z,18.09
2019-05-10T16:51:25.933Z,18.14
2019-05-10T16:53:27.310Z,18.47
2019-05-10T16:55:28.714Z,18.78
2019-05-10T16:57:32.158Z,18.46
2019-05-10T16:59:35.135Z,18.27
2019-05-10T17:01:36.738Z,17.98
2019-05-10T17:03:38.115Z,17.73
2019-05-10T17:05:52.612Z,17.89
2019-05-10T17:07:42.806Z,17.88
2019-05-10T17:09:44.257Z,18.11
2019-05-10T17:11:46.870Z,18.32
2019-05-10T17:13:48.948Z,18.18
2019-05-10T17:15:50.320Z,18.39
2019-05-10T17:17:51.688Z,18.03
2019-05-10T17:19:53.074Z,18.02
2019-05-10T17:21:54.491Z,17.95
2019-05-10T17:23:55.931Z,17.63
2019-05-10T17:25:57.308Z,17.46
2019-05-10T17:27:59.973Z,17.15
2019-05-10T17:30:01.706Z,16.83
2019-05-10T17:32:03.063Z,16.76
2019-05-10T17:34:04.445Z,16.53
2019-05-10T17:36:08.424Z,16.38
2019-05-10T17:38:14.075Z,16.32
2019-05-10T17:40:12.636Z,16.29
2019-05-10T17:42:14.030Z,16.18
2019-05-10T17:44:17.436Z,16.08
2019-05-10T17:46:20.712Z,16.01
2019-05-10T17:48:22.041Z,15.86
2019-05-10T17:50:23.402Z,15.85
2019-05-10T17:52:24.811Z,15.83
2019-05-10T17:54:26.163Z,15.79
2019-05-10T17:56:27.572Z,15.73
2019-05-10T17:58:33.653Z,15.60
2019-05-10T18:00:32.242Z,15.65
2019-05-10T18:02:33.667Z,15.61
2019-05-10T18:04:35.039Z,15.63
2019-05-10T18:06:36.402Z,15.56
2019-05-10T18:08:37.800Z,15.68
2019-05-10T18:10:39.203Z,15.64
2019-05-10T18:12:40.564Z,15.52
2019-05-10T18:14:42.012Z,15.40
2019-05-10T18:16:48.215Z,15.37
2019-05-10T18:18:48.410Z,15.43
2019-05-10T18:20:50.052Z,15.24
2019-05-10T18:22:51.407Z,15.21
2019-05-10T18:24:52.782Z,15.25
2019-05-10T18:26:54.200Z,15.04
2019-05-10T18:28:55.568Z,15.06
2019-05-10T18:30:56.931Z,15.09
2019-05-10T18:32:58.340Z,15.04
2019-05-10T18:34:59.801Z,14.94
2019-05-10T18:37:01.233Z,14.94
2019-05-10T18:39:08.947Z,14.81
2019-05-10T18:41:10.383Z,14.84
2019-05-10T18:43:12.897Z,14.97
2019-05-10T18:45:15.012Z,14.95
2019-05-10T18:47:17.170Z,14.88
2019-05-10T18:49:18.603Z,14.80
2019-05-10T18:51:24.377Z,14.76
2019-05-10T18:53:23.297Z,14.76
2019-05-10T18:55:24.669Z,14.68
2019-05-10T18:57:26.072Z,14.60
2019-05-10T18:59:27.441Z,14.51
2019-05-10T19:01:32.867Z,14.41
2019-05-10T19:03:33.696Z,14.40
2019-05-10T19:05:35.403Z,14.37
2019-05-10T19:07:36.827Z,14.32
2019-05-10T19:09:38.211Z,14.37
2019-05-10T19:11:40.891Z,14.34
2019-05-10T19:13:48.193Z,14.33
2019-05-10T19:15:52.101Z,14.18
2019-05-10T19:17:49.286Z,14.42
2019-05-10T19:19:50.670Z,14.39
2019-05-10T19:21:52.061Z,14.33
2019-05-10T19:23:53.641Z,14.35
2019-05-10T19:25:55.302Z,14.36
2019-05-10T19:27:56.845Z,14.56
2019-05-10T19:29:58.325Z,14.49
2019-05-10T19:31:59.730Z,14.45
2019-05-10T19:34:01.121Z,14.40
2019-05-10T19:36:02.585Z,14.29
2019-05-10T19:38:04.002Z,14.30
2019-05-10T19:40:06.813Z,14.34
2019-05-10T19:42:08.197Z,14.25
2019-05-10T19:44:09.577Z,14.21
2019-05-10T19:46:10.965Z,14.21
2019-05-10T19:48:12.370Z,14.30
2019-05-10T19:50:13.978Z,14.24
2019-05-10T19:52:15.340Z,14.17
2019-05-10T19:54:19.434Z,14.13
2019-05-10T19:56:20.005Z,14.15
2019-05-10T19:58:21.372Z,14.11
2019-05-10T20:00:22.957Z,14.11
2019-05-10T20:02:24.320Z,14.09
2019-05-10T20:04:25.705Z,14.09
2019-05-10T20:06:27.116Z,13.95
2019-05-10T20:08:28.500Z,13.97
2019-05-10T20:10:29.904Z,13.97
2019-05-10T20:12:31.280Z,13.92
2019-05-10T20:14:32.695Z,13.88
2019-05-10T20:16:34.098Z,13.82
2019-05-10T20:18:35.456Z,13.83
2019-05-10T20:20:36.824Z,13.81
2019-05-10T20:22:38.248Z,13.87
2019-05-10T20:24:39.652Z,13.94
2019-05-10T20:26:41.036Z,13.76
2019-05-10T20:28:42.439Z,13.88
2019-05-10T20:30:43.854Z,13.86
2019-05-10T20:32:45.240Z,13.91
2019-05-10T20:34:46.620Z,13.79
2019-05-10T20:36:48.034Z,13.76
2019-05-10T20:38:49.403Z,13.78
2019-05-10T20:40:50.766Z,13.75
2019-05-10T20:42:52.178Z,13.78
2019-05-10T20:45:06.633Z,13.68
2019-05-10T20:46:56.890Z,13.73
2019-05-10T20:48:58.264Z,13.74
2019-05-10T20:50:59.688Z,13.71
2019-05-10T20:53:01.141Z,13.68
2019-05-10T20:55:04.631Z,13.67
2019-05-10T20:57:06.050Z,13.57
2019-05-10T20:59:07.531Z,13.63
2019-05-10T21:01:08.889Z,13.64
2019-05-10T21:03:10.313Z,13.58
2019-05-10T21:05:11.831Z,13.56
2019-05-10T21:07:13.189Z,13.58
2019-05-10T21:09:14.562Z,13.62
2019-05-10T21:11:16.110Z,13.51
2019-05-10T21:13:17.486Z,13.52
2019-05-10T21:15:18.920Z,13.55
2019-05-10T21:17:20.311Z,13.52
2019-05-10T21:19:21.688Z,13.59
2019-05-10T21:21:23.088Z,13.48
2019-05-10T21:23:24.465Z,13.38
2019-05-10T21:25:25.845Z,13.37
2019-05-10T21:27:27.253Z,13.31
2019-05-10T21:29:28.637Z,13.32
2019-05-10T21:31:30.036Z,13.23
2019-05-10T21:33:31.452Z,13.13
2019-05-10T21:35:32.913Z,13.17
2019-05-10T21:37:34.292Z,13.01
2019-05-10T21:39:35.698Z,12.87
2019-05-10T21:41:37.059Z,12.84
2019-05-10T21:43:38.433Z,13.00
2019-05-10T21:45:39.851Z,12.73
2019-05-10T21:47:51.142Z,12.75
2019-05-10T21:49:44.492Z,12.59
2019-05-10T21:51:45.937Z,12.44
2019-05-10T21:53:47.526Z,12.36
2019-05-10T21:55:48.894Z,12.22
2019-05-10T21:57:50.304Z,12.13
2019-05-10T21:59:51.662Z,12.06
2019-05-10T22:01:53.271Z,12.03
2019-05-10T22:03:54.982Z,12.09
2019-05-10T22:05:56.357Z,11.94
2019-05-10T22:07:57.734Z,11.94
2019-05-10T22:09:59.145Z,11.78
2019-05-10T22:12:00.511Z,11.83
2019-05-10T22:14:01.947Z,11.60
2019-05-10T22:16:03.301Z,11.42
2019-05-10T22:18:04.705Z,11.39
2019-05-10T22:20:06.390Z,11.43
2019-05-10T22:22:07.754Z,11.43
2019-05-10T22:24:09.182Z,11.26
2019-05-10T22:26:10.576Z,11.14
2019-05-10T22:28:11.963Z,11.20
2019-05-10T22:30:13.871Z,11.31
2019-05-10T22:32:15.286Z,11.31
2019-05-10T22:34:16.669Z,11.28
2019-05-10T22:36:18.039Z,11.13
2019-05-10T22:38:19.458Z,11.01
2019-05-10T22:40:20.851Z,11.03
2019-05-10T22:42:22.216Z,10.90
2019-05-10T22:44:23.633Z,11.00
2019-05-10T22:46:25.018Z,10.98
2019-05-10T22:48:26.414Z,10.89
2019-05-10T22:50:27.787Z,10.87
2019-05-10T22:52:29.314Z,10.63
2019-05-10T22:54:30.715Z,10.83
2019-05-10T22:56:32.117Z,10.67
2019-05-10T22:58:33.491Z,10.68
2019-05-10T23:00:34.987Z,10.69
2019-05-10T23:02:36.348Z,10.92
2019-05-10T23:04:37.779Z,10.92
2019-05-10T23:06:39.166Z,10.99
2019-05-10T23:08:40.577Z,11.07
2019-05-10T23:10:41.940Z,10.93
2019-05-10T23:12:43.490Z,10.96
2019-05-10T23:14:44.877Z,11.16
2019-05-10T23:16:46.288Z,11.19
2019-05-10T23:18:47.662Z,11.17
2019-05-10T23:20:49.045Z,11.14
2019-05-10T23:22:50.461Z,11.17
2019-05-10T23:24:51.855Z,11.12
2019-05-10T23:26:53.339Z,11.13
2019-05-10T23:28:54.740Z,11.04
2019-05-10T23:30:56.134Z,10.94
2019-05-10T23:32:57.546Z,10.85
2019-05-10T23:34:58.933Z,10.86
2019-05-10T23:37:00.298Z,10.68
2019-05-10T23:39:01.725Z,10.70
2019-05-10T23:41:03.290Z,10.73
2019-05-10T23:43:04.654Z,10.77
2019-05-10T23:45:06.656Z,10.76
2019-05-10T23:47:08.029Z,10.82
2019-05-10T23:49:09.409Z,10.76
2019-05-10T23:51:10.809Z,10.78
2019-05-10T23:53:12.221Z,10.72
2019-05-10T23:55:13.785Z,10.75
2019-05-10T23:57:15.198Z,10.68
2019-05-10T23:59:16.604Z,10.71
